| time (UTC) | temp F | wind direction | speed MPH | gust MPH | rain 1hr in | rain 24hr in | rain mn in | humidity % | barometer mb |
| 20260507090128 | 64 | 223 | 1.0 | 2.0 | 0.01 | 0.15 | 0.05 | 96 | 1011.2 |
| 20260507085121 | 64 | 223 | 0.0 | 1.0 | 0.01 | 0.15 | 0.05 | 96 | 1011.3 |
| 20260507084133 | 64 | 223 | 0.0 | 0.0 | 0.01 | 0.15 | 0.05 | 96 | 1011.2 |
| 20260507083147 | 64 | 223 | 0.0 | 1.0 | 0.01 | 0.15 | 0.05 | 96 | 1011.4 |
| 20260507082119 | 64 | 223 | 0.0 | 2.0 | 0.01 | 0.15 | 0.05 | 96 | 1011.4 |
| 20260507081133 | 64 | 248 | 0.0 | 2.0 | 0.00 | 0.14 | 0.04 | 96 | 1011.4 |
| 20260507080125 | 64 | 248 | 0.0 | 2.0 | 0.00 | 0.14 | 0.04 | 96 | 1011.7 |
| 20260507075120 | 64 | 236 | 1.0 | 4.0 | 0.00 | 0.14 | 0.04 | 96 | 1012.0 |
| 20260507074154 | 64 | 246 | 1.0 | 2.0 | 0.00 | 0.14 | 0.04 | 96 | 1012.2 |
| 20260507073126 | 64 | 246 | 0.0 | 1.0 | 0.00 | 0.14 | 0.04 | 96 | 1012.1 |
| 20260507072119 | 64 | 246 | 0.0 | 2.0 | 0.00 | 0.14 | 0.04 | 96 | 1011.7 |
| 20260507071118 | 64 | 223 | 0.0 | 2.0 | 0.00 | 0.14 | 0.04 | 96 | 1012.0 |
| 20260507070129 | 64 | 174 | 0.0 | 2.0 | 0.00 | 0.14 | 0.04 | 96 | 1012.2 |
| 20260507065140 | 64 | 175 | 0.0 | 1.0 | 0.00 | 0.14 | 0.04 | 96 | 1012.4 |
| 20260507064115 | 64 | 175 | 1.0 | 2.0 | 0.00 | 0.14 | 0.04 | 96 | 1012.6 |
| 20260507063147 | 64 | 178 | 0.0 | 2.0 | 0.00 | 0.14 | 0.04 | 96 | 1012.7 |
| 20260507062119 | 64 | 178 | 1.0 | 3.0 | 0.01 | 0.14 | 0.04 | 96 | 1012.8 |
| 20260507061152 | 64 | 263 | 0.0 | 1.0 | 0.01 | 0.14 | 0.04 | 95 | 1013.5 |
| 20260507060123 | 64 | 263 | 0.0 | 1.0 | 0.01 | 0.14 | 0.04 | 95 | 1013.7 |
| 20260507055117 | 64 | 263 | 0.0 | 4.0 | 0.01 | 0.14 | 0.04 | 95 | 1013.7 |
| 20260507054151 | 64 | 252 | 1.0 | 2.0 | 0.01 | 0.14 | 0.04 | 95 | 1013.7 |
| 20260507053124 | 64 | 281 | 1.0 | 5.0 | 0.01 | 0.14 | 0.04 | 95 | 1014.0 |
| 20260507052121 | 64 | 284 | 1.0 | 5.0 | 0.00 | 0.13 | 0.03 | 95 | 1014.0 |
| 20260507051133 | 64 | 254 | 1.0 | 2.0 | 0.01 | 0.13 | 0.03 | 95 | 1013.5 |
| 20260507050146 | 64 | 252 | 2.0 | 4.0 | 0.03 | 0.13 | 0.03 | 95 | 1013.5 |
| 20260507045156 | 64 | 267 | 0.0 | 2.0 | 0.04 | 0.13 | 0.03 | 95 | 1013.6 |
| 20260507044128 | 65 | 309 | 1.0 | 2.0 | 0.06 | 0.13 | 0.03 | 95 | 1013.9 |
| 20260507043125 | 65 | 312 | 0.0 | 2.0 | 0.09 | 0.13 | 0.03 | 94 | 1013.8 |
| 20260507042119 | 65 | 311 | 2.0 | 5.0 | 0.10 | 0.13 | 0.03 | 94 | 1013.6 |
| 20260507041132 | 65 | 104 | 2.0 | 5.0 | 0.08 | 0.11 | 0.01 | 94 | 1013.1 |
| 20260507040129 | 65 | 190 | 2.0 | 5.0 | 0.07 | 0.10 | 0.10 | 93 | 1013.4 |
| 20260507035118 | 66 | 149 | 3.0 | 5.0 | 0.07 | 0.09 | 0.09 | 93 | 1013.4 |
| 20260507034131 | 66 | 269 | 2.0 | 5.0 | 0.04 | 0.06 | 0.07 | 93 | 1014.8 |
| 20260507033125 | 66 | 281 | 2.0 | 7.0 | 0.02 | 0.04 | 0.04 | 91 | 1015.1 |
| 20260507032122 | 67 | 269 | 4.0 | 8.0 | 0.01 | 0.03 | 0.03 | 90 | 1015.1 |
| 20260507031115 | 67 | 258 | 4.0 | 7.0 | 0.01 | 0.03 | 0.03 | 90 | 1014.7 |
| 20260507030148 | 68 | 250 | 2.0 | 5.0 | 0.01 | 0.03 | 0.03 | 90 | 1014.4 |
| 20260507025124 | 68 | 265 | 2.0 | 5.0 | 0.00 | 0.02 | 0.02 | 90 | 1014.0 |
| 20260507024117 | 68 | 239 | 2.0 | 6.0 | 0.00 | 0.02 | 0.02 | 90 | 1014.1 |
| 20260507023150 | 68 | 262 | 4.0 | 6.0 | 0.00 | 0.02 | 0.02 | 92 | 1014.4 |
| 20260507022122 | 67 | 241 | 0.0 | 0.0 | 0.00 | 0.02 | 0.02 | 93 | 1013.7 |
| 20260507021119 | 67 | 240 | 0.0 | 0.0 | 0.00 | 0.02 | 0.02 | 93 | 1013.6 |
| 20260507020132 | 67 | 240 | 0.0 | 0.0 | 0.00 | 0.02 | 0.02 | 92 | 1013.6 |
| 20260507015122 | 67 | 240 | 0.0 | 0.0 | 0.00 | 0.02 | 0.02 | 92 | 1013.2 |
| 20260507014135 | 67 | 240 | 0.0 | 0.0 | 0.00 | 0.02 | 0.02 | 91 | 1013.2 |
| 20260507013133 | 68 | 240 | 0.0 | 0.0 | 0.00 | 0.02 | 0.02 | 91 | 1013.0 |
| 20260507012125 | 68 | 240 | 0.0 | 0.0 | 0.00 | 0.02 | 0.02 | 91 | 1013.3 |
| 20260507011119 | 68 | 240 | 0.0 | 0.0 | 0.00 | 0.02 | 0.02 | 90 | 1013.3 |
| 20260507010114 | 68 | 240 | 0.0 | 0.0 | 0.00 | 0.02 | 0.02 | 90 | 1013.3 |
| 20260507005145 | 68 | 240 | 0.0 | 0.0 | 0.00 | 0.02 | 0.02 | 89 | 1013.4 |
| 20260507004117 | 69 | 240 | 0.0 | 2.0 | 0.00 | 0.02 | 0.02 | 88 | 1013.1 |
| 20260507003129 | 69 | 240 | 0.0 | 0.0 | 0.00 | 0.02 | 0.02 | 87 | 1013.5 |
| 20260507002146 | 69 | 240 | 0.0 | 0.0 | 0.00 | 0.02 | 0.02 | 85 | 1013.2 |
| 20260507001137 | 70 | 240 | 0.0 | 0.0 | 0.00 | 0.02 | 0.02 | 85 | 1013.2 |
| 20260507000127 | 70 | 240 | 0.0 | 0.0 | 0.00 | 0.02 | 0.02 | 84 | 1013.2 |
| 20260506235117 | 70 | 240 | 0.0 | 0.0 | 0.00 | 0.02 | 0.02 | 83 | 1013.1 |
| 20260506234134 | 71 | 240 | 0.0 | 0.0 | 0.00 | 0.02 | 0.02 | 83 | 1013.2 |
| 20260506233147 | 71 | 240 | 0.0 | 0.0 | 0.00 | 0.02 | 0.02 | 82 | 1013.0 |
| 20260506232118 | 71 | 240 | 1.0 | 2.0 | 0.00 | 0.02 | 0.02 | 81 | 1013.0 |
| 20260506231130 | 71 | 250 | 0.0 | 2.0 | 0.00 | 0.02 | 0.02 | 81 | 1013.3 |
| 20260506230127 | 71 | 251 | 0.0 | 2.0 | 0.00 | 0.02 | 0.02 | 80 | 1013.5 |
| 20260506225117 | 72 | 251 | 1.0 | 4.0 | 0.00 | 0.02 | 0.02 | 80 | 1013.4 |
| 20260506224129 | 72 | 282 | 1.0 | 3.0 | 0.00 | 0.02 | 0.02 | 80 | 1013.4 |
| 20260506223141 | 72 | 280 | 2.0 | 4.0 | 0.00 | 0.02 | 0.02 | 79 | 1013.5 |
| 20260506222118 | 72 | 267 | 3.0 | 6.0 | 0.00 | 0.02 | 0.02 | 78 | 1013.7 |
| 20260506221131 | 72 | 266 | 3.0 | 6.0 | 0.00 | 0.02 | 0.02 | 78 | 1013.5 |
| 20260506220122 | 72 | 284 | 3.0 | 7.0 | 0.00 | 0.02 | 0.02 | 77 | 1013.4 |
| 20260506215115 | 72 | 319 | 2.0 | 6.0 | 0.00 | 0.02 | 0.02 | 77 | 1013.1 |
| 20260506214127 | 72 | 244 | 3.0 | 7.0 | 0.00 | 0.02 | 0.02 | 77 | 1013.1 |
| 20260506213140 | 72 | 281 | 2.0 | 5.0 | 0.00 | 0.02 | 0.02 | 76 | 1012.9 |
| 20260506212151 | 72 | 307 | 3.0 | 11.0 | 0.00 | 0.02 | 0.02 | 76 | 1012.9 |
| 20260506211123 | 71 | 276 | 3.0 | 7.0 | 0.00 | 0.02 | 0.02 | 78 | 1013.2 |
| 20260506210118 | 71 | 283 | 3.0 | 6.0 | 0.00 | 0.02 | 0.02 | 78 | 1013.4 |
| 20260506205130 | 71 | 275 | 4.0 | 7.0 | 0.00 | 0.02 | 0.02 | 79 | 1013.5 |
| 20260506204122 | 70 | 280 | 3.0 | 9.0 | 0.00 | 0.02 | 0.02 | 80 | 1013.6 |
| 20260506203120 | 70 | 284 | 3.0 | 7.0 | 0.00 | 0.02 | 0.02 | 82 | 1013.5 |
| 20260506202132 | 69 | 290 | 4.0 | 8.0 | 0.00 | 0.02 | 0.02 | 81 | 1013.7 |
| 20260506201123 | 69 | 278 | 3.0 | 8.0 | 0.00 | 0.02 | 0.02 | 84 | 1013.4 |
| 20260506200115 | 68 | 280 | 2.0 | 7.0 | 0.00 | 0.02 | 0.02 | 85 | 1013.4 |
| 20260506195130 | 67 | 284 | 1.0 | 7.0 | 0.00 | 0.02 | 0.02 | 87 | 1013.5 |
| 20260506194124 | 67 | 169 | 2.0 | 6.0 | 0.00 | 0.02 | 0.02 | 88 | 1013.5 |
| 20260506193116 | 66 | 186 | 1.0 | 5.0 | 0.00 | 0.02 | 0.02 | 89 | 1013.5 |
| 20260506192148 | 66 | 204 | 1.0 | 6.0 | 0.00 | 0.02 | 0.02 | 89 | 1013.9 |
| 20260506191124 | 66 | 221 | 2.0 | 5.0 | 0.00 | 0.02 | 0.02 | 89 | 1013.9 |
| 20260506190135 | 66 | 302 | 4.0 | 9.0 | 0.01 | 0.02 | 0.02 | 89 | 1014.1 |
| 20260506185126 | 66 | 230 | 1.0 | 6.0 | 0.02 | 0.02 | 0.02 | 90 | 1014.0 |
| 20260506184123 | 66 | 213 | 2.0 | 4.0 | 0.02 | 0.02 | 0.02 | 90 | 1014.0 |
| 20260506183135 | 66 | 144 | 1.0 | 2.0 | 0.02 | 0.02 | 0.02 | 90 | 1013.8 |
| 20260506182125 | 66 | 225 | 1.0 | 3.0 | 0.02 | 0.02 | 0.02 | 89 | 1014.8 |
| 20260506181118 | 67 | 272 | 1.0 | 2.0 | 0.02 | 0.02 | 0.02 | 87 | 1015.2 |
| 20260506180135 | 68 | 267 | 1.0 | 2.0 | 0.01 | 0.01 | 0.01 | 84 | 1015.4 |
| 20260506175124 | 69 | 265 | 2.0 | 5.0 | 0.00 | 0.00 | 0.00 | 78 | 1016.1 |
| 20260506174117 | 70 | 293 | 2.0 | 5.0 | 0.00 | 0.00 | 0.00 | 77 | 1016.1 |
| 20260506173152 | 70 | 274 | 2.0 | 5.0 | 0.00 | 0.00 | 0.00 | 76 | 1015.6 |
| 20260506172127 | 69 | 306 | 1.0 | 5.0 | 0.00 | 0.00 | 0.00 | 76 | 1015.4 |
| 20260506171121 | 69 | 297 | 1.0 | 5.0 | 0.00 | 0.00 | 0.00 | 77 | 1015.4 |
| 20260506170132 | 69 | 281 | 1.0 | 6.0 | 0.00 | 0.00 | 0.00 | 76 | 1015.6 |
| 20260506165143 | 68 | 220 | 1.0 | 5.0 | 0.00 | 0.00 | 0.00 | 77 | 1015.5 |
| 20260506164119 | 67 | 68 | 0.0 | 2.0 | 0.00 | 0.00 | 0.00 | 78 | 1015.8 |
| 20260506163133 | 67 | 240 | 1.0 | 4.0 | 0.00 | 0.00 | 0.00 | 79 | 1015.9 |
| 20260506162146 | 66 | 266 | 2.0 | 3.0 | 0.00 | 0.00 | 0.00 | 78 | 1015.8 |
| 20260506161123 | 66 | 275 | 2.0 | 3.0 | 0.00 | 0.00 | 0.00 | 79 | 1015.6 |
| 20260506160135 | 66 | 268 | 0.0 | 4.0 | 0.00 | 0.00 | 0.00 | 79 | 1015.5 |
| 20260506155144 | 65 | 240 | 1.0 | 4.0 | 0.00 | 0.00 | 0.00 | 79 | 1015.3 |
| 20260506154116 | 65 | 186 | 1.0 | 4.0 | 0.00 | 0.00 | 0.00 | 78 | 1015.1 |
| 20260506153133 | 65 | 234 | 0.0 | 2.0 | 0.00 | 0.00 | 0.00 | 79 | 1015.6 |
| 20260506152127 | 65 | 280 | 1.0 | 5.0 | 0.00 | 0.00 | 0.00 | 78 | 1015.5 |
| 20260506151140 | 65 | 274 | 1.0 | 4.0 | 0.00 | 0.00 | 0.00 | 78 | 1015.5 |
| 20260506150131 | 65 | 209 | 1.0 | 5.0 | 0.00 | 0.00 | 0.00 | 78 | 1015.5 |
| 20260506145126 | 65 | 297 | 1.0 | 3.0 | 0.00 | 0.00 | 0.00 | 78 | 1015.7 |
| 20260506144119 | 65 | 254 | 1.0 | 5.0 | 0.00 | 0.00 | 0.00 | 77 | 1015.3 |
| 20260506143133 | 65 | 311 | 2.0 | 5.0 | 0.00 | 0.00 | 0.00 | 77 | 1015.3 |
| 20260506142147 | 65 | 286 | 2.0 | 5.0 | 0.00 | 0.00 | 0.00 | 77 | 1015.3 |
| 20260506141122 | 65 | 286 | 2.0 | 5.0 | 0.00 | 0.00 | 0.00 | 76 | 1015.2 |
| 20260506140114 | 65 | 257 | 2.0 | 7.0 | 0.00 | 0.00 | 0.00 | 76 | 1015.1 |
| 20260506135146 | 65 | 177 | 1.0 | 6.0 | 0.00 | 0.00 | 0.00 | 77 | 1015.0 |
| 20260506134115 | 65 | 105 | 1.0 | 6.0 | 0.00 | 0.00 | 0.00 | 76 | 1014.9 |
| 20260506133151 | 64 | 307 | 2.0 | 5.0 | 0.00 | 0.00 | 0.00 | 77 | 1014.8 |
| 20260506132123 | 64 | 213 | 2.0 | 5.0 | 0.00 | 0.00 | 0.00 | 77 | 1015.1 |
| 20260506131117 | 64 | 290 | 2.0 | 5.0 | 0.00 | 0.00 | 0.00 | 77 | 1015.1 |
| 20260506130126 | 64 | 217 | 1.0 | 4.0 | 0.00 | 0.00 | 0.00 | 77 | 1015.2 |
| 20260506125118 | 63 | 258 | 2.0 | 6.0 | 0.00 | 0.00 | 0.00 | 77 | 1015.5 |
| 20260506124151 | 63 | 263 | 3.0 | 6.0 | 0.00 | 0.00 | 0.00 | 77 | 1015.6 |
| 20260506123142 | 63 | 245 | 1.0 | 7.0 | 0.00 | 0.00 | 0.00 | 78 | 1015.8 |
| 20260506122133 | 63 | 255 | 2.0 | 5.0 | 0.00 | 0.00 | 0.00 | 78 | 1015.6 |
| 20260506121150 | 63 | 259 | 1.0 | 5.0 | 0.00 | 0.00 | 0.00 | 78 | 1015.4 |
| 20260506120138 | 63 | 267 | 2.0 | 5.0 | 0.00 | 0.00 | 0.00 | 79 | 1015.4 |
| 20260506115128 | 62 | 262 | 1.0 | 5.0 | 0.00 | 0.00 | 0.00 | 79 | 1015.3 |
| 20260506114122 | 62 | 265 | 3.0 | 5.0 | 0.00 | 0.00 | 0.00 | 79 | 1015.2 |
| 20260506113119 | 62 | 219 | 1.0 | 5.0 | 0.00 | 0.00 | 0.00 | 80 | 1015.1 |
| 20260506112132 | 62 | 259 | 1.0 | 4.0 | 0.00 | 0.00 | 0.00 | 80 | 1015.3 |
| 20260506111123 | 62 | 229 | 1.0 | 2.0 | 0.00 | 0.00 | 0.00 | 80 | 1014.9 |
| 20260506110120 | 62 | 293 | 1.0 | 4.0 | 0.00 | 0.00 | 0.00 | 80 | 1014.6 |
| 20260506105130 | 62 | 241 | 1.0 | 4.0 | 0.00 | 0.00 | 0.00 | 79 | 1014.5 |
| 20260506104121 | 62 | 304 | 2.0 | 3.0 | 0.00 | 0.00 | 0.00 | 79 | 1014.7 |
| 20260506103134 | 62 | 297 | 1.0 | 5.0 | 0.00 | 0.00 | 0.00 | 79 | 1014.6 |
| 20260506102131 | 62 | 268 | 2.0 | 6.0 | 0.00 | 0.00 | 0.00 | 79 | 1014.4 |
| 20260506101124 | 62 | 270 | 1.0 | 2.0 | 0.00 | 0.00 | 0.00 | 79 | 1014.4 |
| 20260506100117 | 62 | 257 | 2.0 | 4.0 | 0.00 | 0.00 | 0.00 | 78 | 1014.5 |
| 20260506095128 | 62 | 268 | 1.0 | 5.0 | 0.00 | 0.00 | 0.00 | 78 | 1014.6 |
| 20260506094145 | 62 | 220 | 1.0 | 5.0 | 0.00 | 0.00 | 0.00 | 78 | 1014.5 |
| 20260506093117 | 63 | 297 | 1.0 | 5.0 | 0.00 | 0.00 | 0.00 | 77 | 1014.7 |
| 20260506092131 | 63 | 276 | 2.0 | 3.0 | 0.00 | 0.00 | 0.00 | 77 | 1014.8 |
| 20260506091126 | 63 | 263 | 2.0 | 5.0 | 0.00 | 0.00 | 0.00 | 76 | 1014.9 |